Flight Track Log - Related Links

Times and Time Zones

All times are in EDT time to prevent confusion due to time zone crossing. See the N762NC flight status page for this flight to view local times or setup timezone preferences in your user account.

Time Position Orientation Groundspeed Altitude Reporting Facility
EDT Latitude Longitude Course Direction KTS MPH feet Rate Location/Type
Fri 04:09:14 PM 42.2308 -83.3511 275° West 174 200 1,300  Level Cleveland Center
Fri 04:10:03 PM 42.2769 -83.3389 11° North 226 260 2,600 1,904 Climbing Cleveland Center
Fri 04:10:58 PM 42.3361 -83.3164 16° North 245 282 4,600 2,311 Climbing Cleveland Center
Fri 04:12:05 PM 42.4117 -83.2858 17° North 262 302 7,300 1,935 Climbing Cleveland Center
Fri 04:13:00 PM 42.3909 -84.0640 292° West  Level FlightAware Approximate
Fri 04:13:33 PM 42.4783 -83.3731 316° Northwest 294 338 9,600  Level Cleveland Center
Fri 04:14:00 PM 42.4184 -84.2094 275° West  Level FlightAware Approximate
Fri 04:14:33 PM 42.4467 -83.4758 247° West 291 335 10,000  Level Cleveland Center
Fri 04:15:33 PM 42.4169 -83.5842 250° West 315 362 10,000 800 Level Cleveland Center
Fri 04:16:33 PM 42.3989 -83.7128 259° West 336 387 11,600 1,850 Climbing Cleveland Center
Fri 04:17:33 PM 42.4075 -83.8511 275° West 356 410 13,700 2,200 Climbing Cleveland Center
Fri 04:18:33 PM 42.4286 -83.9872 282° West 363 418 16,000 2,168 Climbing Cleveland Center
Fri 04:20:55 PM 42.4169 -84.2986 267° West 367 422 21,000 1,941 Climbing Chicago Center
Fri 04:21:57 PM 42.4189 -84.4589 271° West 357 411 22,600 1,306 Climbing Chicago Center
Fri 04:22:59 PM 42.4189 -84.5997 270° West 369 425 23,700 1,161 Climbing Chicago Center
Fri 04:24:01 PM 42.4300 -84.7425 276° West 382 440 25,000 1,161 Climbing Chicago Center
Fri 04:25:03 PM 42.4358 -84.8894 273° West 388 447 26,100 1,065 Climbing Chicago Center
Fri 04:26:05 PM 42.4475 -85.0369 276° West 394 453 27,200 960 Climbing Chicago Center
Fri 04:27:08 PM 42.4528 -85.1889 273° West 402 463 28,100 912 Climbing Chicago Center
Fri 04:28:10 PM 42.4442 -85.3778 267° West 416 479 29,100 968 Climbing Chicago Center
Fri 04:29:12 PM 42.4381 -85.5372 267° West 422 486 30,100 871 Climbing Chicago Center
Fri 04:30:14 PM 42.4386 -85.6953 270° West 420 483 30,900 823 Climbing Chicago Center
Fri 04:31:16 PM 42.4411 -85.8553 271° West 423 487 31,800 871 Climbing Chicago Center
Fri 04:32:18 PM 42.4442 -86.0142 272° West 423 487 32,700 774 Climbing Chicago Center
Fri 04:33:20 PM 42.4636 -86.1697 280° West 420 483 33,400 629 Climbing Chicago Center
Fri 04:34:22 PM 42.4300 -86.3206 253° West 430 495 34,000 290 Climbing Chicago Center
Fri 04:35:24 PM 42.3442 -86.4833 235° Southwest 444 511 34,000 -48 Level Chicago Center
Fri 04:36:26 PM 42.2794 -86.6003 233° Southwest 451 519 33,900 -48 Descending Chicago Center
Fri 04:37:28 PM 42.1972 -86.7536 234° Southwest 445 512 33,900  Level Chicago Center
Fri 04:38:30 PM 42.1233 -86.8881 233° Southwest 448 516 33,900 48 Level Chicago Center
Fri 04:39:32 PM 42.0494 -87.0244 234° Southwest 450 518 34,000  Climbing Chicago Center
Fri 04:40:34 PM 41.9592 -87.1867 233° Southwest 452 520 33,900  Descending Chicago Center
Fri 04:41:37 PM 41.8858 -87.3236 234° Southwest 452 520 34,000  Climbing Chicago Center
Fri 04:42:39 PM 41.8108 -87.4575 233° Southwest 452 520 33,900  Descending Chicago Center
Fri 04:43:41 PM 41.7439 -87.5961 237° Southwest 445 512 34,000  Climbing Chicago Center
Fri 04:44:43 PM 41.6786 -87.7378 238° Southwest 449 517 33,900  Descending Chicago Center
Fri 04:45:45 PM 41.6036 -87.9083 240° Southwest 447 514 34,000  Climbing Chicago Center
Fri 04:46:47 PM 41.5522 -88.0544 245° Southwest 444 511 33,900 -48 Descending Chicago Center
Fri 04:47:49 PM 41.5050 -88.2025 247° West 451 519 33,900  Level Chicago Center
Fri 04:48:51 PM 41.4458 -88.3803 246° West 446 513 33,900  Level Chicago Center
Fri 04:49:53 PM 41.3961 -88.5289 246° West 445 512 33,900 48 Level Chicago Center
Fri 04:50:55 PM 41.3467 -88.6783 246° West 445 512 34,000  Climbing Chicago Center
Fri 04:51:57 PM 41.2969 -88.8275 246° West 445 512 33,900  Descending Chicago Center
Fri 04:52:59 PM 41.2500 -88.9794 248° West 447 514 34,000  Climbing Chicago Center
Fri 04:54:01 PM 41.1950 -89.1589 248° West 443 510 33,900  Descending Chicago Center
Fri 04:55:04 PM 41.1736 -89.3097 259° West 436 502 34,000 48 Climbing Chicago Center
Fri 04:56:06 PM 41.1592 -89.4664 263° West 432 497 34,000 -48 Level Chicago Center
Fri 04:57:08 PM 41.1461 -89.6231 264° West 432 497 33,900  Descending Chicago Center
Fri 04:58:10 PM 41.1175 -89.7772 256° West 439 505 34,000  Climbing Chicago Center
Fri 04:59:12 PM 41.0433 -89.9467 240° Southwest 450 518 33,900  Descending Chicago Center
Fri 05:00:14 PM 40.9872 -90.1014 244° Southwest 447 514 34,000  Climbing Chicago Center
Fri 05:01:16 PM 40.9347 -90.2475 245° Southwest 442 509 33,900 -48 Descending Chicago Center
Fri 05:02:18 PM 40.8844 -90.3867 244° Southwest 446 513 33,900 48 Level Chicago Center
Fri 05:03:20 PM 40.8208 -90.5625 244° Southwest 446 513 34,000  Climbing Chicago Center
Fri 05:04:22 PM 40.7681 -90.7106 245° Southwest 449 517 33,900 -48 Descending Chicago Center
Fri 05:05:24 PM 40.7161 -90.8592 245° Southwest 448 516 33,900 48 Level Chicago Center
Fri 05:06:26 PM 40.6731 -91.0111 250° West 445 512 34,000  Climbing Chicago Center
Fri 05:07:28 PM 40.6300 -91.1625 250° West 444 511 33,900  Descending Chicago Center
Fri 05:08:14 PM 40.5953 -91.2892 250° West 441 507 34,000 -165 Climbing Kansas City Center
Fri 05:09:17 PM 40.5644 -91.4389 255° West 433 498 33,600 -387 Descending Kansas City Center
Fri 05:10:18 PM 40.5539 -91.5883 265° West 417 480 33,200 -286 Descending Kansas City Center
Fri 05:11:23 PM 40.5383 -91.7358 262° West 413 475 33,000 -96 Descending Kansas City Center
Fri 05:12:23 PM 40.5167 -91.9147 261° West 415 478 33,000 -194 Level Kansas City Center
Fri 05:13:27 PM 40.5008 -92.0689 262° West 422 486 32,600 -384 Descending Kansas City Center
Fri 05:14:28 PM 40.4867 -92.2253 263° West 432 497 32,200 -590 Descending Kansas City Center
Fri 05:15:29 PM 40.4764 -92.3775 265° West 419 482 31,400 -581 Descending Kansas City Center
Fri 05:16:32 PM 40.4650 -92.5286 264° West 416 479 31,000 -195 Descending Kansas City Center
Fri 05:17:32 PM 40.4492 -92.7053 263° West 429 494 31,000 -98 Level Kansas City Center
Fri 05:18:34 PM 40.4294 -92.8533 260° West 435 501 30,800 -952 Descending Kansas City Center
Fri 05:19:38 PM 40.3331 -92.9781 225° Southwest 432 497 29,000 -2,400 Descending Kansas City Center
Fri 05:20:39 PM 40.2433 -93.0881 223° Southwest 422 486 25,800 -3,000 Descending Kansas City Center
Fri 05:21:42 PM 40.1575 -93.1889 222° Southwest 421 484 22,800 -2,419 Descending Kansas City Center
Fri 05:22:43 PM 40.0753 -93.2886 223° Southwest 413 475 20,800 -2,064 Descending Kansas City Center
Fri 05:23:47 PM 40.0047 -93.3814 225° Southwest 374 430 18,500 -2,304 Descending Kansas City Center
Fri 05:24:48 PM 39.9175 -93.4917 224° Southwest 368 423 16,000 -2,177 Descending Kansas City Center
Fri 05:25:51 PM 39.8486 -93.5803 225° Southwest 357 411 14,000 -1,610 Descending Kansas City Center
Fri 05:26:51 PM 39.7836 -93.6653 225° Southwest 341 392 12,700 -968 Descending Kansas City Center
Fri 05:27:55 PM 39.7061 -93.7606 223° Southwest 341 392 12,000 -336 Descending Kansas City Center
Fri 05:28:56 PM 39.6408 -93.8433 224° Southwest 341 392 12,000 -393 Level Kansas City Center
Fri 05:29:57 PM 39.5847 -93.9431 234° Southwest 307 353 11,200 -629 Descending Kansas City Center
Fri 05:31:00 PM 39.5483 -94.0403 244° Southwest 311 358 10,700 -425 Descending Kansas City Center
Fri 05:32:04 PM 39.5122 -94.1431 246° West 327 376 10,300 -532 Descending Kansas City Center
Fri 05:33:04 PM 39.4892 -94.2633 256° West 301 346 9,600 -1,180 Descending Kansas City Center
Fri 05:34:06 PM 39.4733 -94.3581 258° West 283 326 7,900 -1,707 Descending Kansas City Center
Fri 05:35:07 PM 39.4592 -94.4697 261° West 282 325 6,100 -1,152 Descending Kansas City Center
Fri 05:36:11 PM 39.4500 -94.5569 262° West 258 297 5,500 -1,210 Descending Kansas City Center
Fri 05:37:11 PM 39.4403 -94.6439 262° West 222 255 3,600 -1,355 Descending Kansas City Center
Fri 05:38:15 PM 39.3928 -94.6772 208° Southwest 199 229 2,700 -857 Descending Kansas City Center
Fri 05:39:17 PM 39.3456 -94.6903 192° South 156 180 1,800 -787 Descending Kansas City Center
Fri 05:40:17 PM 39.3089 -94.7011 193° South 144 166 1,100 -700 Descending Kansas City Center

Login

Don't have an account? Register now (free) for customized features, flight alerts, and more!